Time;durP1;ratioP1;P1;durP2;ratioP2;P2;SDS_P1;SDS_P2;PMS_P1;PMS_P2;Temp;Humidity;BMP_temperature;BMP_pressure;BME280_temperature;BME280_humidity;BME280_pressure;Samples;Min_cycle;Max_cycle;Signal;HPM_P1;HPM_P2
2021/01/22 00:00:35;;;;;;;;;;;;;;;22.06;42.78;98795.28;2064880;28;3833;-36
2021/01/22 00:01:36;;;;;;;;;;;;;;;22.08;42.68;98795.69;2066671;28;3883;-35
2021/01/22 00:02:37;;;;;;;;;;;;;;;22.10;42.66;98789.56;2067249;28;3902;-35
2021/01/22 00:03:38;;;;;;;;;;;;;;;22.12;42.65;98785.09;2064594;28;3981;-36
2021/01/22 00:04:39;;;;;;;;;;;;;;;22.11;42.44;98774.09;2064542;28;3993;-36
2021/01/22 00:05:39;;;;;;;;;;;;;;;22.08;42.56;98772.91;2064021;28;4083;-34
2021/01/22 00:06:40;;;;;;;;;;;;;;;22.14;42.60;98771.25;2068220;28;4008;-35
2021/01/22 00:07:41;;;;;;;;;;;;;;;22.13;42.58;98777.34;2067087;28;4070;-36
2021/01/22 00:08:42;;;;;;;;;;;;;;;22.15;42.38;98770.03;2064764;28;4061;-36
2021/01/22 00:09:42;;;;;;;;;;;;;;;22.17;42.40;98764.75;2068645;28;3982;-35
2021/01/22 00:10:43;;;;;;;;;;;;;;;22.19;42.60;98772.88;2069408;28;3914;-36
2021/01/22 00:11:44;;;;;;;;;;;;;;;22.15;42.51;98755.78;2068902;28;4080;-36
2021/01/22 00:12:44;;;;;;;;;;;;;;;22.18;42.62;98763.53;2066472;28;3860;-36
2021/01/22 00:13:45;;;;;;;;;;;;;;;22.23;42.34;98753.75;2066289;28;4088;-35
2021/01/22 00:14:46;;;;;;;;;;;;;;;22.21;42.40;98744.81;2068470;28;4150;-34
2021/01/22 00:15:47;;;;;;;;;;;;;;;22.23;42.39;98753.75;2061913;28;3974;-36
2021/01/22 00:16:48;;;;;;;;;;;;;;;22.22;42.61;98743.59;2069384;28;3882;-36
2021/01/22 00:17:49;;;;;;;;;;;;;;;22.18;42.74;98746.44;2068028;28;3881;-36
2021/01/22 00:18:50;;;;;;;;;;;;;;;22.20;42.63;98737.50;2067999;28;3899;-35
2021/01/22 00:19:50;;;;;;;;;;;;;;;22.20;42.63;98735.47;2067525;28;5205;-36
2021/01/22 00:20:51;;;;;;;;;;;;;;;22.23;42.64;98734.63;2067346;28;4084;-35
2021/01/22 00:21:52;;;;;;;;;;;;;;;22.30;42.51;98730.94;2066822;28;4128;-35
2021/01/22 00:22:53;;;;;;;;;;;;;;;22.32;42.43;98733.38;2065941;28;3887;-36
2021/01/22 00:23:53;;;;;;;;;;;;;;;22.31;42.54;98726.06;2065877;28;4606;-36
2021/01/22 00:24:54;;;;;;;;;;;;;;;22.32;42.75;98716.28;2061803;28;3907;-35
2021/01/22 00:25:55;;;;;;;;;;;;;;;22.31;42.57;98720.38;2066454;28;4004;-35
2021/01/22 00:26:55;;;;;;;;;;;;;;;22.28;42.83;98716.31;2067422;28;4206;-35
2021/01/22 00:27:56;;;;;;;;;;;;;;;22.29;42.89;98719.97;2064413;28;4059;-35
2021/01/22 00:28:57;;;;;;;;;;;;;;;22.28;42.89;98712.66;2067145;28;4091;-35
2021/01/22 00:29:58;;;;;;;;;;;;;;;22.24;42.91;98707.75;2067093;28;4063;-36
2021/01/22 00:30:59;;;;;;;;;;;;;;;22.24;43.19;98702.06;2068192;28;3968;-36
2021/01/22 00:32:00;;;;;;;;;;;;;;;22.20;43.02;98701.28;2062792;28;4287;-35
2021/01/22 00:33:02;;;;;;;;;;;;;;;22.18;43.33;98698.03;2069051;28;4115;-35
2021/01/22 00:34:03;;;;;;;;;;;;;;;22.19;43.38;98704.53;2067570;28;3871;-36
2021/01/22 00:35:04;;;;;;;;;;;;;;;22.13;43.39;98701.28;2063815;28;5040;-35
2021/01/22 00:36:05;;;;;;;;;;;;;;;22.16;43.50;98694.75;2067562;28;4052;-36
2021/01/22 00:37:05;;;;;;;;;;;;;;;22.18;43.34;98702.91;2068306;28;3959;-34
2021/01/22 00:38:06;;;;;;;;;;;;;;;22.15;43.31;98692.31;2069621;28;3930;-36
2021/01/22 00:39:07;;;;;;;;;;;;;;;22.18;43.36;98695.19;2067386;28;4015;-36
2021/01/22 00:40:07;;;;;;;;;;;;;;;22.19;43.27;98688.28;2066548;28;4055;-35
2021/01/22 00:41:09;;;;;;;;;;;;;;;22.20;43.30;98689.09;2069347;28;3876;-35
2021/01/22 00:42:10;;;;;;;;;;;;;;;22.18;43.44;98686.63;2068186;28;3784;-35
2021/01/22 00:43:11;;;;;;;;;;;;;;;22.17;43.52;98693.53;2068364;28;4383;-35
2021/01/22 00:44:12;;;;;;;;;;;;;;;22.16;43.55;98688.25;2066654;28;3996;-36
2021/01/22 00:45:13;;;;;;;;;;;;;;;22.13;43.40;98687.03;2067730;28;3840;-36
2021/01/22 00:46:14;;;;;;;;;;;;;;;22.13;43.58;98683.38;2068425;28;4328;-35
2021/01/22 00:47:14;;;;;;;;;;;;;;;22.12;43.48;98682.56;2068477;28;3884;-35
2021/01/22 00:48:15;;;;;;;;;;;;;;;22.16;43.49;98694.75;2069078;28;3927;-35
2021/01/22 00:49:16;;;;;;;;;;;;;;;22.13;43.53;98681.34;2065483;28;4239;-35
2021/01/22 00:50:17;;;;;;;;;;;;;;;22.15;43.57;98676.03;2063186;28;3871;-35
2021/01/22 00:51:18;;;;;;;;;;;;;;;22.15;43.57;98673.19;2069143;28;3991;-34
2021/01/22 00:52:18;;;;;;;;;;;;;;;22.18;43.33;98680.94;2068413;28;4431;-35
2021/01/22 00:53:19;;;;;;;;;;;;;;;22.15;43.47;98676.03;2066369;28;4578;-35
2021/01/22 00:54:20;;;;;;;;;;;;;;;22.17;43.41;98684.19;2068656;28;3851;-35
2021/01/22 00:55:20;;;;;;;;;;;;;;;22.18;43.42;98683.78;2065325;28;4220;-35
2021/01/22 00:56:21;;;;;;;;;;;;;;;22.14;43.60;98676.47;2068770;28;3939;-35
2021/01/22 00:57:22;;;;;;;;;;;;;;;22.14;43.54;98677.28;2068067;28;4038;-35
2021/01/22 00:58:23;;;;;;;;;;;;;;;22.16;43.43;98671.97;2063247;28;4190;-35
2021/01/22 00:59:23;;;;;;;;;;;;;;;22.18;43.17;98675.25;2064726;28;3888;-35
2021/01/22 01:00:24;;;;;;;;;;;;;;;22.19;43.18;98671.19;2066610;28;4119;-35
2021/01/22 01:01:25;;;;;;;;;;;;;;;22.17;43.41;98673.59;2066917;28;4038;-36
2021/01/22 01:02:25;;;;;;;;;;;;;;;22.22;43.19;98675.25;2069292;28;3966;-34
2021/01/22 01:03:26;;;;;;;;;;;;;;;22.21;43.10;98674.41;2064473;28;3750;-35
2021/01/22 01:04:27;;;;;;;;;;;;;;;22.20;43.16;98672.81;2068965;28;3923;-35
2021/01/22 01:05:28;;;;;;;;;;;;;;;22.25;43.29;98671.56;2064444;28;3850;-34
2021/01/22 01:06:29;;;;;;;;;;;;;;;22.26;43.24;98670.34;2068352;28;3943;-35
2021/01/22 01:07:29;;;;;;;;;;;;;;;22.28;42.95;98667.09;2069225;28;4156;-35
2021/01/22 01:08:30;;;;;;;;;;;;;;;22.30;42.98;98671.13;2065088;28;4049;-35
2021/01/22 01:09:31;;;;;;;;;;;;;;;22.32;42.92;98673.56;2067512;28;4121;-35
2021/01/22 01:10:31;;;;;;;;;;;;;;;22.34;43.06;98671.91;2065425;28;4192;-35
2021/01/22 01:11:32;;;;;;;;;;;;;;;22.33;42.91;98675.16;2065188;28;4099;-35
2021/01/22 01:12:33;;;;;;;;;;;;;;;22.34;42.90;98671.13;2067728;28;4014;-35
2021/01/22 01:13:34;;;;;;;;;;;;;;;22.43;43.25;98669.41;2065186;28;3860;-34
2021/01/22 01:14:35;;;;;;;;;;;;;;;22.49;43.09;98663.28;2067986;28;4065;-36
2021/01/22 01:15:36;;;;;;;;;;;;;;;22.56;43.62;98669.75;2064424;28;3845;-35
2021/01/22 01:16:37;;;;;;;;;;;;;;;22.61;43.51;98674.22;2066235;28;3841;-35
2021/01/22 01:17:37;;;;;;;;;;;;;;;22.59;43.79;98670.97;2068483;28;3864;-35
2021/01/22 01:18:38;;;;;;;;;;;;;;;22.59;43.94;98666.06;2065738;28;4020;-34
2021/01/22 01:19:39;;;;;;;;;;;;;;;22.58;44.02;98657.97;2064376;28;4015;-35
2021/01/22 01:20:40;;;;;;;;;;;;;;;22.55;44.71;98656.75;2069434;28;3837;-35
2021/01/22 01:21:41;;;;;;;;;;;;;;;22.58;45.05;98658.75;2068391;28;3839;-35
2021/01/22 01:22:41;;;;;;;;;;;;;;;22.57;45.18;98656.31;2064839;28;4035;-35
2021/01/22 01:23:42;;;;;;;;;;;;;;;22.55;45.86;98650.22;2066668;28;3850;-35
2021/01/22 01:24:43;;;;;;;;;;;;;;;22.51;45.96;98655.16;2068012;28;3839;-35
2021/01/22 01:25:43;;;;;;;;;;;;;;;22.54;45.96;98648.59;2066468;28;3944;-35
2021/01/22 01:26:44;;;;;;;;;;;;;;;22.55;46.02;98651.06;2067440;28;5001;-35
2021/01/22 01:27:45;;;;;;;;;;;;;;;22.50;46.42;98650.69;2063933;28;3912;-36
2021/01/22 01:28:46;;;;;;;;;;;;;;;22.50;46.36;98659.22;2067904;28;3997;-35
2021/01/22 01:29:46;;;;;;;;;;;;;;;22.48;46.37;98658.81;2067105;28;4017;-35
2021/01/22 01:30:47;;;;;;;;;;;;;;;22.46;46.49;98642.13;2068398;28;4076;-36
2021/01/22 01:31:48;;;;;;;;;;;;;;;22.50;46.21;98644.97;2068730;28;4035;-35
2021/01/22 01:32:49;;;;;;;;;;;;;;;22.45;46.24;98646.22;2063693;28;3986;-35
2021/01/22 01:33:50;;;;;;;;;;;;;;;22.42;46.45;98638.50;2065613;28;3921;-36
2021/01/22 01:34:50;;;;;;;;;;;;;;;22.43;46.30;98634.44;2065858;28;4018;-34
2021/01/22 01:35:52;;;;;;;;;;;;;;;22.43;46.19;98635.22;2065922;28;4132;-35
2021/01/22 01:36:53;;;;;;;;;;;;;;;22.41;45.99;98625.47;2063542;28;3773;-35
2021/01/22 01:37:53;;;;;;;;;;;;;;;22.41;46.30;98632.00;2066416;28;4059;-35
2021/01/22 01:38:54;;;;;;;;;;;;;;;22.38;46.35;98629.16;2067820;28;4024;-35
2021/01/22 01:39:55;;;;;;;;;;;;;;;22.37;46.18;98619.00;2069246;28;4115;-35
2021/01/22 01:40:55;;;;;;;;;;;;;;;22.38;46.25;98623.47;2065760;28;4632;-36
2021/01/22 01:41:59;;;;;;;;;;;;;;;22.43;46.14;98623.03;2063226;28;3880;-35
2021/01/22 01:43:01;;;;;;;;;;;;;;;22.46;46.10;98627.88;2064785;28;4235;-34
2021/01/22 01:44:02;;;;;;;;;;;;;;;22.45;46.09;98629.13;2066896;28;4530;-35
2021/01/22 01:45:03;;;;;;;;;;;;;;;22.44;46.01;98618.94;2065353;28;4000;-35
2021/01/22 01:46:03;;;;;;;;;;;;;;;22.42;45.94;98627.13;2068524;28;4066;-35
2021/01/22 01:47:04;;;;;;;;;;;;;;;22.39;46.03;98619.41;2066455;28;3896;-35
2021/01/22 01:48:07;;;;;;;;;;;;;;;22.40;45.96;98621.81;2066880;28;3945;-35
2021/01/22 01:49:08;;;;;;;;;;;;;;;22.42;45.98;98627.94;2067122;28;4078;-34
2021/01/22 01:50:08;;;;;;;;;;;;;;;22.45;46.05;98629.13;2068792;28;3866;-35
2021/01/22 01:51:09;;;;;;;;;;;;;;;22.42;46.11;98625.06;2066968;28;3931;-36
2021/01/22 01:52:10;;;;;;;;;;;;;;;22.44;46.06;98631.19;2064941;28;3897;-35
2021/01/22 01:53:11;;;;;;;;;;;;;;;22.40;46.00;98613.28;2065665;28;4053;-36
2021/01/22 01:54:12;;;;;;;;;;;;;;;22.38;46.08;98614.91;2064697;28;3888;-35
2021/01/22 01:55:13;;;;;;;;;;;;;;;22.38;46.19;98620.63;2064578;28;3890;-35
2021/01/22 01:56:14;;;;;;;;;;;;;;;22.36;46.11;98623.91;2067737;28;3899;-35
2021/01/22 01:57:15;;;;;;;;;;;;;;;22.38;46.11;98623.47;2067641;28;4223;-35
2021/01/22 01:58:15;;;;;;;;;;;;;;;22.40;46.28;98626.72;2066755;28;4052;-35
2021/01/22 01:59:16;;;;;;;;;;;;;;;22.38;46.16;98612.06;2065243;28;3870;-36
2021/01/22 02:00:17;;;;;;;;;;;;;;;22.34;46.24;98614.16;2066381;28;3970;-36
2021/01/22 02:01:17;;;;;;;;;;;;;;;22.34;46.40;98620.66;2065031;28;3899;-35
2021/01/22 02:02:18;;;;;;;;;;;;;;;22.38;46.10;98618.56;2068606;28;4075;-36
2021/01/22 02:03:19;;;;;;;;;;;;;;;22.43;46.07;98611.63;2066939;28;4029;-36
2021/01/22 02:04:20;;;;;;;;;;;;;;;22.42;46.00;98618.56;2068656;28;4321;-36
2021/01/22 02:05:20;;;;;;;;;;;;;;;22.42;46.11;98612.88;2066228;28;4004;-36
2021/01/22 02:06:21;;;;;;;;;;;;;;;22.42;46.18;98604.31;2068190;28;3985;-36
2021/01/22 02:07:22;;;;;;;;;;;;;;;22.41;46.09;98603.53;2067206;28;4042;-34
2021/01/22 02:08:23;;;;;;;;;;;;;;;22.40;46.08;98601.06;2065991;28;4063;-35
2021/01/22 02:09:23;;;;;;;;;;;;;;;22.42;46.13;98604.31;2066139;28;4171;-35
2021/01/22 02:10:24;;;;;;;;;;;;;;;22.41;46.09;98591.28;2066712;28;3918;-36
2021/01/22 02:11:25;;;;;;;;;;;;;;;22.41;45.94;98589.28;2065626;28;3927;-36
2021/01/22 02:12:25;;;;;;;;;;;;;;;22.42;46.05;98607.19;2060535;28;3826;-35
2021/01/22 02:13:26;;;;;;;;;;;;;;;22.44;45.97;98602.69;2067250;28;4137;-35
2021/01/22 02:14:27;;;;;;;;;;;;;;;22.43;46.06;98594.53;2067026;28;3880;-34
2021/01/22 02:15:28;;;;;;;;;;;;;;;22.42;46.09;98588.03;2064937;28;3901;-34
2021/01/22 02:16:28;;;;;;;;;;;;;;;22.41;46.13;98588.44;2068353;28;4108;-35
2021/01/22 02:17:30;;;;;;;;;;;;;;;22.41;46.11;98597.00;2066480;28;4125;-37
2021/01/22 02:18:31;;;;;;;;;;;;;;;22.42;46.25;98588.03;2068062;28;4022;-35
2021/01/22 02:19:32;;;;;;;;;;;;;;;22.40;46.31;98593.34;2066239;28;4083;-36
2021/01/22 02:20:32;;;;;;;;;;;;;;;22.39;46.37;98591.72;2066381;28;3833;-35
2021/01/22 02:21:33;;;;;;;;;;;;;;;22.39;46.26;98590.91;2068842;28;3846;-36
2021/01/22 02:22:34;;;;;;;;;;;;;;;22.38;46.42;98583.59;2066328;28;4048;-36
2021/01/22 02:23:36;;;;;;;;;;;;;;;22.38;46.15;98583.59;2066747;28;4061;-36
2021/01/22 02:24:36;;;;;;;;;;;;;;;22.40;46.38;98586.84;2067462;28;3985;-35
2021/01/22 02:25:37;;;;;;;;;;;;;;;22.37;46.47;98587.66;2065047;28;3943;-35
2021/01/22 02:26:38;;;;;;;;;;;;;;;22.35;46.40;98585.22;2066026;28;3956;-34
2021/01/22 02:27:39;;;;;;;;;;;;;;;22.34;46.60;98568.56;2064858;28;4210;-36
2021/01/22 02:28:39;;;;;;;;;;;;;;;22.36;46.45;98584.00;2065569;28;3995;-35
2021/01/22 02:29:40;;;;;;;;;;;;;;;22.38;46.54;98580.72;2063650;28;4029;-36
2021/01/22 02:30:41;;;;;;;;;;;;;;;22.37;46.75;98585.63;2060818;28;4041;-35
2021/01/22 02:31:42;;;;;;;;;;;;;;;22.36;46.66;98580.38;2064153;28;3853;-36
2021/01/22 02:32:42;;;;;;;;;;;;;;;22.36;46.72;98580.38;2063556;28;3850;-36
2021/01/22 02:33:43;;;;;;;;;;;;;;;22.35;46.95;98567.34;2067974;28;3960;-36
2021/01/22 02:34:44;;;;;;;;;;;;;;;22.36;46.84;98577.50;2067360;28;3872;-36
2021/01/22 02:35:46;;;;;;;;;;;;;;;22.35;46.76;98570.19;2064418;28;3972;-36
2021/01/22 02:36:47;;;;;;;;;;;;;;;22.34;46.82;98562.88;2064238;28;4467;-35
2021/01/22 02:37:48;;;;;;;;;;;;;;;22.35;47.05;98570.97;2066873;28;4051;-35
2021/01/22 02:38:49;;;;;;;;;;;;;;;22.35;47.04;98581.56;2067851;28;4049;-35
2021/01/22 02:39:50;;;;;;;;;;;;;;;22.34;47.15;98574.25;2066245;28;4405;-36
2021/01/22 02:40:50;;;;;;;;;;;;;;;22.35;47.08;98570.97;2067144;28;4075;-35
2021/01/22 02:41:51;;;;;;;;;;;;;;;22.35;47.12;98573.03;2067989;28;3875;-35
2021/01/22 02:42:52;;;;;;;;;;;;;;;22.37;46.99;98550.63;2067793;28;4076;-36
2021/01/22 02:43:53;;;;;;;;;;;;;;;22.38;47.00;98555.09;2066744;28;3898;-36
2021/01/22 02:44:53;;;;;;;;;;;;;;;22.37;46.95;98557.13;2061795;28;4031;-35
2021/01/22 02:45:54;;;;;;;;;;;;;;;22.40;46.72;98556.31;2067141;28;4054;-35
2021/01/22 02:46:56;;;;;;;;;;;;;;;22.37;46.79;98562.03;2067546;28;4247;-35
2021/01/22 02:47:57;;;;;;;;;;;;;;;22.34;46.80;98548.63;2067632;28;4173;-35
2021/01/22 02:48:58;;;;;;;;;;;;;;;22.35;46.88;98553.09;2067291;28;4121;-35
2021/01/22 02:49:59;;;;;;;;;;;;;;;22.35;46.83;98553.09;2065269;28;3898;-35
2021/01/22 02:51:02;;;;;;;;;;;;;;;22.33;46.73;98559.22;2067087;28;4061;-35
2021/01/22 02:52:02;;;;;;;;;;;;;;;22.32;46.73;98548.22;2067711;28;4240;-34
2021/01/22 02:53:03;;;;;;;;;;;;;;;22.33;46.63;98552.69;2066683;28;4055;-35
2021/01/22 02:54:04;;;;;;;;;;;;;;;22.35;46.77;98558.78;2067267;28;3893;-35
2021/01/22 02:55:04;;;;;;;;;;;;;;;22.35;46.79;98544.53;2064676;28;3906;-36
2021/01/22 02:56:05;;;;;;;;;;;;;;;22.41;46.74;98540.00;2065054;28;3902;-35
2021/01/22 02:57:06;;;;;;;;;;;;;;;22.45;46.24;98541.63;2067497;28;3878;-35
2021/01/22 02:58:07;;;;;;;;;;;;;;;22.48;46.33;98542.00;2065988;28;3883;-36
2021/01/22 02:59:08;;;;;;;;;;;;;;;22.49;46.30;98550.13;2067411;28;3912;-36
2021/01/22 03:00:08;;;;;;;;;;;;;;;22.50;46.10;98545.25;2063256;28;3910;-35
2021/01/22 03:01:09;;;;;;;;;;;;;;;22.49;46.12;98546.47;2064748;28;3880;-35
2021/01/22 03:02:10;;;;;;;;;;;;;;;22.44;46.07;98548.56;2063592;28;4773;-35
2021/01/22 03:03:12;;;;;;;;;;;;;;;22.48;46.10;98531.41;2065695;28;3947;-36
2021/01/22 03:04:13;;;;;;;;;;;;;;;22.48;46.30;98539.97;2068047;28;3881;-36
2021/01/22 03:05:13;;;;;;;;;;;;;;;22.48;46.32;98533.47;2065081;28;3916;-36
2021/01/22 03:06:14;;;;;;;;;;;;;;;22.44;46.42;98534.31;2065562;28;4037;-35
2021/01/22 03:07:15;;;;;;;;;;;;;;;22.43;46.21;98532.66;2067266;28;4163;-36
2021/01/22 03:08:16;;;;;;;;;;;;;;;22.43;46.08;98529.00;2066707;28;3955;-36
2021/01/22 03:09:16;;;;;;;;;;;;;;;22.45;46.24;98524.53;2067063;28;4036;-36
2021/01/22 03:10:17;;;;;;;;;;;;;;;22.45;46.33;98533.06;2067020;28;4082;-35
2021/01/22 03:11:18;;;;;;;;;;;;;;;22.44;46.27;98534.31;2066041;28;4536;-35
2021/01/22 03:12:19;;;;;;;;;;;;;;;22.42;45.96;98535.94;2066654;28;4072;-36
2021/01/22 03:13:19;;;;;;;;;;;;;;;22.41;46.16;98546.53;2065860;28;3894;-36
2021/01/22 03:14:20;;;;;;;;;;;;;;;22.42;46.21;98535.94;2064642;28;3957;-35
2021/01/22 03:15:21;;;;;;;;;;;;;;;22.42;46.11;98531.06;2065190;28;4070;-34
2021/01/22 03:16:22;;;;;;;;;;;;;;;22.38;45.98;98538.81;2067911;28;4042;-36
2021/01/22 03:17:23;;;;;;;;;;;;;;;22.41;46.07;98537.16;2066721;28;4042;-35
2021/01/22 03:18:24;;;;;;;;;;;;;;;22.27;45.90;98532.38;2063998;28;4052;-35
2021/01/22 03:19:24;;;;;;;;;;;;;;;22.04;45.04;98538.63;2066573;28;4045;-36
2021/01/22 03:20:25;;;;;;;;;;;;;;;21.75;44.57;98535.94;2067558;28;4270;-35
2021/01/22 03:21:26;;;;;;;;;;;;;;;21.60;44.85;98547.78;2064324;28;3901;-35
2021/01/22 03:22:27;;;;;;;;;;;;;;;21.71;46.92;98537.97;2067811;28;4053;-34
2021/01/22 03:23:27;;;;;;;;;;;;;;;21.90;45.71;98535.84;2064350;28;4136;-36
2021/01/22 03:24:28;;;;;;;;;;;;;;;22.04;45.38;98537.81;2066985;28;4043;-34
2021/01/22 03:25:29;;;;;;;;;;;;;;;22.10;45.10;98548.34;2064472;28;4947;-35
2021/01/22 03:26:29;;;;;;;;;;;;;;;22.14;45.08;98545.50;2067607;28;3872;-35
2021/01/22 03:27:30;;;;;;;;;;;;;;;22.15;44.95;98542.22;2067936;28;3821;-35
2021/01/22 03:28:31;;;;;;;;;;;;;;;22.13;44.97;98538.97;2064592;28;3898;-36
2021/01/22 03:29:32;;;;;;;;;;;;;;;22.13;45.03;98529.59;2067150;28;3884;-35
2021/01/22 03:30:32;;;;;;;;;;;;;;;22.12;45.08;98534.50;2066801;28;4040;-36
2021/01/22 03:31:33;;;;;;;;;;;;;;;22.13;45.09;98536.09;2066262;28;3874;-34
2021/01/22 03:32:34;;;;;;;;;;;;;;;22.13;45.05;98543.84;2066655;28;4011;-35
2021/01/22 03:33:35;;;;;;;;;;;;;;;22.11;44.94;98532.88;2062431;28;3996;-35
2021/01/22 03:34:36;;;;;;;;;;;;;;;22.10;45.12;98531.25;2067165;28;4025;-36
2021/01/22 03:35:38;;;;;;;;;;;;;;;22.11;45.00;98520.66;2062626;28;4544;-35
2021/01/22 03:36:39;;;;;;;;;;;;;;;22.07;45.20;98529.25;2067419;28;4014;-36
2021/01/22 03:37:39;;;;;;;;;;;;;;;22.07;45.21;98519.91;2066922;28;4083;-35
2021/01/22 03:38:40;;;;;;;;;;;;;;;22.09;45.02;98518.25;2063254;28;4055;-35
2021/01/22 03:39:41;;;;;;;;;;;;;;;22.09;45.17;98514.59;2067666;28;4002;-36
2021/01/22 03:40:42;;;;;;;;;;;;;;;22.11;45.02;98523.50;2066791;28;4026;-35
2021/01/22 03:41:43;;;;;;;;;;;;;;;22.11;44.95;98503.59;2066075;28;4031;-36
2021/01/22 03:42:43;;;;;;;;;;;;;;;22.11;45.17;98527.19;2067227;28;4200;-35
2021/01/22 03:43:44;;;;;;;;;;;;;;;22.10;45.14;98519.84;2065334;28;4042;-36
2021/01/22 03:44:45;;;;;;;;;;;;;;;22.13;45.00;98523.91;2069650;28;3994;-36
2021/01/22 03:45:45;;;;;;;;;;;;;;;22.12;45.09;98508.88;2065726;28;3865;-35
2021/01/22 03:46:46;;;;;;;;;;;;;;;22.13;45.13;98507.63;2069470;28;5225;-35
2021/01/22 03:47:47;;;;;;;;;;;;;;;22.18;44.98;98512.91;2069175;28;4071;-36
2021/01/22 03:48:48;;;;;;;;;;;;;;;22.17;44.88;98507.63;2065928;28;3937;-35
2021/01/22 03:49:49;;;;;;;;;;;;;;;22.20;44.81;98501.13;2068581;28;3904;-36
2021/01/22 03:50:50;;;;;;;;;;;;;;;22.18;44.73;98515.78;2067349;28;3777;-35
2021/01/22 03:51:50;;;;;;;;;;;;;;;22.19;44.63;98506.00;2068593;28;4057;-35
2021/01/22 03:52:51;;;;;;;;;;;;;;;22.22;44.63;98495.81;2067831;28;3943;-34
2021/01/22 03:53:54;;;;;;;;;;;;;;;22.20;44.68;98513.31;2064868;28;4081;-35
2021/01/22 03:54:54;;;;;;;;;;;;;;;22.22;44.71;98510.06;2067427;28;4054;-35
2021/01/22 03:55:55;;;;;;;;;;;;;;;22.23;44.54;98494.59;2069191;28;3987;-36
2021/01/22 03:56:56;;;;;;;;;;;;;;;22.24;44.43;98494.16;2069202;28;4136;-35
2021/01/22 03:57:56;;;;;;;;;;;;;;;22.25;44.46;98509.22;2068795;28;4034;-34
2021/01/22 03:58:57;;;;;;;;;;;;;;;22.26;44.53;98507.19;2064959;28;3881;-36
2021/01/22 03:59:58;;;;;;;;;;;;;;;22.28;44.34;98502.69;2068417;28;4718;-35
2021/01/22 04:00:59;;;;;;;;;;;;;;;22.32;44.39;98505.50;2068588;28;3984;-36
2021/01/22 04:02:00;;;;;;;;;;;;;;;22.39;44.64;98488.38;2069139;28;3866;-35
2021/01/22 04:03:01;;;;;;;;;;;;;;;22.47;44.36;98478.53;2066130;28;3897;-35
2021/01/22 04:04:01;;;;;;;;;;;;;;;22.50;44.32;98476.88;2062945;28;3960;-36
2021/01/22 04:05:02;;;;;;;;;;;;;;;22.55;44.65;98477.22;2066365;28;3883;-35
2021/01/22 04:06:03;;;;;;;;;;;;;;;22.25;44.92;98483.59;2069593;28;4205;-36
2021/01/22 04:07:04;;;;;;;;;;;;;;;22.33;44.92;98485.16;2068447;28;4042;-35
2021/01/22 04:08:04;;;;;;;;;;;;;;;22.38;44.67;98481.84;2069269;28;3865;-35
2021/01/22 04:09:05;;;;;;;;;;;;;;;22.41;44.42;98486.72;2066303;28;4056;-35
2021/01/22 04:10:06;;;;;;;;;;;;;;;22.43;44.56;98475.69;2068460;28;3909;-35
2021/01/22 04:11:07;;;;;;;;;;;;;;;22.48;44.54;98490.72;2066571;28;4491;-35
2021/01/22 04:12:07;;;;;;;;;;;;;;;22.50;44.28;98482.59;2067985;28;3778;-37
2021/01/22 04:13:08;;;;;;;;;;;;;;;22.49;44.39;98472.41;2067593;28;3901;-34
2021/01/22 04:14:09;;;;;;;;;;;;;;;22.50;44.54;98480.53;2065654;28;3869;-36
2021/01/22 04:15:10;;;;;;;;;;;;;;;22.50;44.33;98482.59;2065391;28;3992;-35
2021/01/22 04:16:12;;;;;;;;;;;;;;;22.48;44.55;98473.63;2068075;28;4048;-37
2021/01/22 04:17:12;;;;;;;;;;;;;;;22.48;44.69;98473.63;2068110;28;3910;-37
2021/01/22 04:18:13;;;;;;;;;;;;;;;22.48;44.62;98470.78;2067447;28;3878;-34
2021/01/22 04:19:14;;;;;;;;;;;;;;;22.48;44.52;98460.19;2066907;28;4109;-37
2021/01/22 04:20:20;;;;;;;;;;;;;;;22.49;44.56;98472.41;2062858;28;4036;-34
2021/01/22 04:21:21;;;;;;;;;;;;;;;22.49;44.75;98466.69;2068101;28;4004;-36
2021/01/22 04:22:22;;;;;;;;;;;;;;;22.49;44.52;98458.94;2069423;28;4028;-36
2021/01/22 04:23:23;;;;;;;;;;;;;;;22.48;44.83;98476.47;2065587;28;3901;-36
2021/01/22 04:24:23;;;;;;;;;;;;;;;22.49;44.49;98478.91;2068180;28;3889;-35
2021/01/22 04:25:24;;;;;;;;;;;;;;;22.48;44.49;98465.09;2065932;28;3949;-35
2021/01/22 04:26:25;;;;;;;;;;;;;;;22.48;44.70;98460.19;2069125;28;4042;-35
2021/01/22 04:27:26;;;;;;;;;;;;;;;22.52;44.47;98463.00;2065360;28;4019;-36
2021/01/22 04:28:26;;;;;;;;;;;;;;;22.52;44.54;98449.56;2065676;28;3893;-36
2021/01/22 04:29:27;;;;;;;;;;;;;;;22.52;44.41;98457.31;2064317;28;3866;-36
2021/01/22 04:30:28;;;;;;;;;;;;;;;22.51;44.64;98456.50;2069400;28;4173;-34
2021/01/22 04:31:29;;;;;;;;;;;;;;;22.50;44.71;98456.94;2067397;28;4061;-35
2021/01/22 04:32:29;;;;;;;;;;;;;;;22.51;44.62;98461.41;2068904;28;4032;-35
2021/01/22 04:33:30;;;;;;;;;;;;;;;22.53;44.60;98450.41;2066667;28;3842;-35
2021/01/22 04:34:31;;;;;;;;;;;;;;;22.53;44.45;98451.19;2066120;28;4061;-35
2021/01/22 04:35:32;;;;;;;;;;;;;;;22.52;44.56;98446.72;2066664;28;3882;-36
2021/01/22 04:36:33;;;;;;;;;;;;;;;22.55;44.42;98445.91;2065248;28;3875;-35
2021/01/22 04:37:33;;;;;;;;;;;;;;;22.55;44.58;98451.59;2068944;28;4239;-35
2021/01/22 04:38:38;;;;;;;;;;;;;;;22.55;44.60;98454.44;2066809;28;3865;-36
2021/01/22 04:39:39;;;;;;;;;;;;;;;22.52;44.73;98455.25;2068666;28;3957;-36
2021/01/22 04:40:40;;;;;;;;;;;;;;;22.52;44.59;98452.41;2069256;28;4038;-35
2021/01/22 04:41:41;;;;;;;;;;;;;;;22.54;44.53;98447.09;2063103;28;4068;-36
2021/01/22 04:42:41;;;;;;;;;;;;;;;22.53;44.66;98434.09;2067038;28;4015;-36
2021/01/22 04:43:44;;;;;;;;;;;;;;;22.52;44.57;98438.16;2067681;28;3878;-35
2021/01/22 04:44:45;;;;;;;;;;;;;;;22.55;44.64;98445.06;2067081;28;3932;-36
2021/01/22 04:45:45;;;;;;;;;;;;;;;22.56;44.61;98441.00;2066459;28;4028;-35
2021/01/22 04:46:46;;;;;;;;;;;;;;;22.60;44.39;98436.06;2066572;28;4162;-35
2021/01/22 04:47:47;;;;;;;;;;;;;;;22.57;44.54;98445.44;2068261;28;3917;-35
2021/01/22 04:48:49;;;;;;;;;;;;;;;22.56;44.67;98433.25;2068357;28;4050;-36
2021/01/22 04:49:49;;;;;;;;;;;;;;;22.52;44.65;98432.47;2068526;28;3947;-36
2021/01/22 04:50:50;;;;;;;;;;;;;;;22.55;44.55;98437.34;2066541;28;4070;-36
2021/01/22 04:51:52;;;;;;;;;;;;;;;22.51;44.54;98439.41;2068974;28;4027;-35
2021/01/22 04:52:52;;;;;;;;;;;;;;;22.51;44.64;98433.72;2068948;28;3866;-35
2021/01/22 04:53:53;;;;;;;;;;;;;;;22.54;44.26;98432.84;2064695;28;3886;-35
2021/01/22 04:54:54;;;;;;;;;;;;;;;22.53;44.57;98434.09;2064334;28;4093;-34
2021/01/22 04:55:54;;;;;;;;;;;;;;;22.53;44.43;98419.84;2061451;28;3892;-36
2021/01/22 04:56:55;;;;;;;;;;;;;;;22.55;44.37;98425.94;2068008;28;4064;-34
2021/01/22 04:57:56;;;;;;;;;;;;;;;22.56;44.41;98421.06;2066091;28;3923;-35
2021/01/22 04:58:57;;;;;;;;;;;;;;;22.57;44.46;98420.63;2067769;28;3938;-35
2021/01/22 04:59:57;;;;;;;;;;;;;;;22.56;44.25;98421.84;2067494;28;3937;-35
2021/01/22 05:00:58;;;;;;;;;;;;;;;22.57;44.30;98422.66;2068213;28;4429;-36
2021/01/22 05:01:59;;;;;;;;;;;;;;;22.58;44.35;98422.25;2066716;28;4056;-35
2021/01/22 05:03:00;;;;;;;;;;;;;;;22.62;44.24;98423.00;2066884;28;4050;-36
2021/01/22 05:04:01;;;;;;;;;;;;;;;22.62;44.24;98417.31;2068175;28;4240;-36
2021/01/22 05:05:02;;;;;;;;;;;;;;;22.62;44.21;98423.00;2064231;28;4431;-36
2021/01/22 05:06:03;;;;;;;;;;;;;;;22.62;44.34;98430.75;2062167;28;4045;-35
2021/01/22 05:07:03;;;;;;;;;;;;;;;22.59;44.34;98415.31;2068664;28;4020;-36
2021/01/22 05:08:04;;;;;;;;;;;;;;;22.58;44.50;98415.75;2067628;28;3988;-36
2021/01/22 05:09:05;;;;;;;;;;;;;;;22.56;44.46;98421.06;2066315;28;4144;-36
2021/01/22 05:10:06;;;;;;;;;;;;;;;22.55;44.59;98408.84;2065424;28;4074;-35
2021/01/22 05:11:07;;;;;;;;;;;;;;;22.56;44.55;98415.34;2068321;28;3890;-36
2021/01/22 05:12:08;;;;;;;;;;;;;;;22.56;44.63;98418.19;2068780;28;3874;-35
2021/01/22 05:13:08;;;;;;;;;;;;;;;22.55;44.61;98416.56;2068745;28;3901;-37
2021/01/22 05:14:09;;;;;;;;;;;;;;;22.56;44.65;98403.94;2068072;28;4030;-35
2021/01/22 05:15:10;;;;;;;;;;;;;;;22.57;44.61;98399.88;2062856;28;4016;-35
2021/01/22 05:16:11;;;;;;;;;;;;;;;22.53;44.71;98388.50;2068981;28;4038;-36
2021/01/22 05:17:12;;;;;;;;;;;;;;;22.58;44.49;98395.81;2068042;28;3959;-36
2021/01/22 05:18:15;;;;;;;;;;;;;;;22.59;44.52;98405.94;2068501;28;4076;-36
2021/01/22 05:19:16;;;;;;;;;;;;;;;22.58;44.51;98395.81;2063504;28;4043;-37
2021/01/22 05:20:16;;;;;;;;;;;;;;;22.54;44.51;98406.41;2066466;28;3912;-36
2021/01/22 05:21:20;;;;;;;;;;;;;;;22.54;44.66;98403.56;2068458;28;3996;-37